Time;durP1;ratioP1;P1;durP2;ratioP2;P2;SDS_P1;SDS_P2;PMS_P1;PMS_P2;Temp;Humidity;BMP_temperature;BMP_pressure;BME280_temperature;BME280_humidity;BME280_pressure;Samples;Min_cycle;Max_cycle;Signal;HPM_P1;HPM_P2
2022/06/28 00:01:55;;;;;;;9.65;4.55;;;;;;;;;;10285080;28;20036;-63
2022/06/28 00:06:54;;;;;;;7.35;4.35;;;;;;;;;;10283090;28;20084;-63
2022/06/28 00:11:53;;;;;;;7.63;4.43;;;;;;;;;;10286452;28;20445;-63
2022/06/28 00:16:51;;;;;;;7.13;4.75;;;;;;;;;;10285840;28;20052;-64
2022/06/28 00:21:51;;;;;;;4.97;4.05;;;;;;;;;;10279353;28;20096;-62
2022/06/28 00:26:49;;;;;;;9.18;4.65;;;;;;;;;;10282357;28;20080;-63
2022/06/28 00:31:48;;;;;;;7.55;4.40;;;;;;;;;;10280690;28;20514;-63
2022/06/28 00:36:46;;;;;;;9.23;4.03;;;;;;;;;;10282350;28;20044;-62
2022/06/28 00:41:46;;;;;;;5.45;3.47;;;;;;;;;;10282859;28;20264;-63
2022/06/28 00:46:45;;;;;;;6.72;4.13;;;;;;;;;;10280707;28;20048;-63
2022/06/28 00:51:43;;;;;;;7.65;4.10;;;;;;;;;;10284591;28;20402;-63
2022/06/28 00:56:42;;;;;;;5.30;4.32;;;;;;;;;;10282952;28;20067;-62
2022/06/28 01:01:41;;;;;;;5.22;4.50;;;;;;;;;;10279729;28;20560;-62
2022/06/28 01:06:41;;;;;;;4.70;4.30;;;;;;;;;;10295815;28;20059;-64
2022/06/28 01:11:40;;;;;;;4.53;4.13;;;;;;;;;;10279750;28;20526;-63
2022/06/28 01:16:38;;;;;;;9.27;4.47;;;;;;;;;;10290222;28;20068;-64
2022/06/28 01:21:47;;;;;;;5.03;4.40;;;;;;;;;;10296224;28;20083;-63
2022/06/28 01:26:47;;;;;;;;;;;;;;;;;;10282622;28;20088;-63
2022/06/28 01:31:48;;;;;;;4.97;4.13;;;;;;;;;;10278907;28;20394;-64
2022/06/28 01:36:47;;;;;;;9.07;7.22;;;;;;;;;;10282363;28;20076;-67
2022/06/28 01:41:50;;;;;;;6.82;5.05;;;;;;;;;;10287180;28;20072;-67
2022/06/28 01:46:53;;;;;;;8.20;5.30;;;;;;;;;;10277886;28;20056;-68
2022/06/28 01:51:55;;;;;;;5.65;4.55;;;;;;;;;;10275729;28;20099;-67
2022/06/28 01:56:54;;;;;;;6.63;4.32;;;;;;;;;;10273824;28;20076;-67
2022/06/28 02:01:56;;;;;;;5.47;4.30;;;;;;;;;;10271408;28;20171;-67
2022/06/28 02:06:58;;;;;;;;;;;;;;;;;;10273859;28;20072;-67
2022/06/28 02:12:02;;;;;;;5.70;4.25;;;;;;;;;;10276284;28;19968;-67
2022/06/28 02:17:03;;;;;;;6.30;3.78;;;;;;;;;;10293312;28;20079;-67
2022/06/28 02:22:03;;;;;;;5.50;4.78;;;;;;;;;;10282720;28;20052;-67
2022/06/28 02:27:01;;;;;;;7.28;4.60;;;;;;;;;;10298412;28;20091;-66
2022/06/28 02:32:00;;;;;;;5.90;3.95;;;;;;;;;;10298736;28;20075;-65
2022/06/28 02:42:15;;;;;;;6.25;4.57;;;;;;;;;;10275781;28;20053;-66
2022/06/28 02:47:14;;;;;;;4.93;4.45;;;;;;;;;;10278271;28;20053;-66
2022/06/28 02:52:13;;;;;;;5.47;4.30;;;;;;;;;;10277001;28;20080;-66
2022/06/28 02:57:12;;;;;;;7.65;4.65;;;;;;;;;;10273484;28;20089;-66
2022/06/28 03:02:10;;;;;;;5.15;4.18;;;;;;;;;;10274323;28;20053;-67
2022/06/28 03:07:08;;;;;;;4.22;3.83;;;;;;;;;;10276344;28;20049;-67
2022/06/28 03:12:09;;;;;;;5.35;4.43;;;;;;;;;;10278590;28;20057;-67
2022/06/28 03:17:07;;;;;;;6.57;5.13;;;;;;;;;;10281940;28;20045;-66
2022/06/28 03:22:06;;;;;;;6.28;4.85;;;;;;;;;;10283498;28;20049;-67
2022/06/28 03:27:05;;;;;;;9.23;4.55;;;;;;;;;;10289712;28;20088;-68
2022/06/28 03:32:06;;;;;;;5.40;4.65;;;;;;;;;;10286917;28;20080;-67
2022/06/28 03:37:05;;;;;;;8.18;4.25;;;;;;;;;;10283073;28;20461;-68
2022/06/28 03:42:13;;;;;;;9.50;4.75;;;;;;;;;;10282093;28;20053;-67
2022/06/28 03:47:15;;;;;;;5.07;4.45;;;;;;;;;;10282456;28;20419;-67
2022/06/28 03:52:14;;;;;;;5.68;4.53;;;;;;;;;;10295228;28;20080;-67
2022/06/28 03:57:31;;;;;;;6.60;4.72;;;;;;;;;;10291975;28;20479;-67
2022/06/28 04:02:30;;;;;;;9.65;5.45;;;;;;;;;;10287576;28;20532;-68
2022/06/28 04:07:29;;;;;;;8.00;7.18;;;;;;;;;;10300892;28;20428;-67
2022/06/28 04:12:28;;;;;;;8.43;7.63;;;;;;;;;;10301515;28;20413;-67
2022/06/28 04:17:37;;;;;;;9.10;5.57;;;;;;;;;;10283419;28;20088;-67
2022/06/28 04:22:54;;;;;;;6.22;4.68;;;;;;;;;;10288466;28;20526;-67
2022/06/28 04:27:56;;;;;;;9.75;5.75;;;;;;;;;;10280986;28;20408;-67
2022/06/28 04:32:56;;;;;;;9.32;4.90;;;;;;;;;;10282345;28;20080;-65
2022/06/28 04:37:57;;;;;;;9.43;6.22;;;;;;;;;;10292039;28;20567;-66
2022/06/28 04:43:22;;;;;;;10.00;5.55;;;;;;;;;;10288595;28;20073;-67
2022/06/28 04:48:22;;;;;;;8.02;5.72;;;;;;;;;;10288209;28;20474;-67
2022/06/28 04:53:20;;;;;;;7.43;6.40;;;;;;;;;;10276758;28;20064;-67
2022/06/28 04:58:23;;;;;;;10.32;5.43;;;;;;;;;;10271635;28;20084;-68
2022/06/28 05:03:23;;;;;;;13.05;5.53;;;;;;;;;;10274042;28;20072;-67
2022/06/28 05:08:33;;;;;;;9.75;6.30;;;;;;;;;;10298829;28;20146;-67
2022/06/28 05:13:34;;;;;;;9.02;4.80;;;;;;;;;;10279874;28;20074;-67
2022/06/28 05:18:35;;;;;;;5.68;4.80;;;;;;;;;;10296729;28;20348;-67
2022/06/28 05:23:37;;;;;;;6.53;5.80;;;;;;;;;;10286446;28;20573;-67
2022/06/28 05:28:54;;;;;;;7.60;5.78;;;;;;;;;;10283087;28;20076;-67
2022/06/28 05:33:55;;;;;;;11.77;5.25;;;;;;;;;;10284064;28;20068;-67
2022/06/28 05:38:53;;;;;;;8.30;5.53;;;;;;;;;;10282083;28;20072;-68
2022/06/28 05:43:51;;;;;;;6.97;5.78;;;;;;;;;;10282046;28;20487;-67
2022/06/28 05:48:50;;;;;;;10.05;5.93;;;;;;;;;;10273635;28;20080;-67
2022/06/28 05:53:50;;;;;;;11.95;5.43;;;;;;;;;;10283485;28;20447;-66
2022/06/28 05:58:50;;;;;;;11.88;6.13;;;;;;;;;;10277482;28;20060;-66
2022/06/28 06:03:49;;;;;;;19.73;6.70;;;;;;;;;;10279248;28;20076;-67
2022/06/28 06:08:47;;;;;;;9.40;5.45;;;;;;;;;;10271527;28;20114;-67
2022/06/28 06:13:47;;;;;;;9.90;5.95;;;;;;;;;;10274335;28;20078;-67
2022/06/28 06:18:46;;;;;;;9.52;5.80;;;;;;;;;;10273326;28;20080;-68
2022/06/28 06:23:45;;;;;;;7.95;7.15;;;;;;;;;;10270146;28;20118;-67
2022/06/28 06:29:03;;;;;;;11.13;6.07;;;;;;;;;;10288413;28;20072;-68
2022/06/28 06:34:02;;;;;;;15.52;7.07;;;;;;;;;;10279629;28;20514;-68
2022/06/28 06:39:16;;;;;;;7.43;4.63;;;;;;;;;;10277379;28;20049;-68
2022/06/28 06:44:16;;;;;;;9.70;7.68;;;;;;;;;;10273014;28;20056;-68
2022/06/28 06:49:17;;;;;;;13.00;6.55;;;;;;;;;;10273453;28;20077;-68
2022/06/28 06:54:17;;;;;;;9.50;6.10;;;;;;;;;;10277326;28;20152;-68
2022/06/28 06:59:18;;;;;;;7.60;6.55;;;;;;;;;;10274174;28;20541;-67
2022/06/28 07:04:18;;;;;;;10.48;6.85;;;;;;;;;;10277079;28;20053;-67
2022/06/28 07:09:17;;;;;;;7.75;6.65;;;;;;;;;;10273396;28;20453;-68
2022/06/28 07:14:18;;;;;;;9.23;7.50;;;;;;;;;;10272698;28;20081;-68
2022/06/28 07:19:17;;;;;;;13.57;6.40;;;;;;;;;;10276636;28;20049;-68
2022/06/28 07:24:17;;;;;;;8.48;6.00;;;;;;;;;;10275012;28;20080;-67
2022/06/28 07:29:16;;;;;;;13.82;7.80;;;;;;;;;;10276511;28;20091;-68
2022/06/28 07:34:15;;;;;;;10.68;6.53;;;;;;;;;;10273568;28;20076;-67
2022/06/28 07:39:14;;;;;;;13.40;7.07;;;;;;;;;;10276564;28;20467;-69
2022/06/28 07:44:32;;;;;;;12.63;5.53;;;;;;;;;;10276613;28;20080;-68
2022/06/28 07:54:44;;;;;;;12.50;6.20;;;;;;;;;;10275726;28;20073;-68
2022/06/28 07:59:53;;;;;;;12.32;5.43;;;;;;;;;;10280722;28;20087;-67
2022/06/28 08:04:53;;;;;;;11.23;6.80;;;;;;;;;;10284465;28;20045;-68
2022/06/28 08:09:51;;;;;;;5.78;4.57;;;;;;;;;;10290334;28;20515;-68
2022/06/28 08:14:50;;;;;;;11.48;5.53;;;;;;;;;;10289057;28;20041;-68
2022/06/28 08:19:50;;;;;;;7.10;4.70;;;;;;;;;;10296435;28;20045;-68
2022/06/28 08:24:50;;;;;;;7.72;5.30;;;;;;;;;;10289576;28;20061;-69
2022/06/28 08:29:48;;;;;;;17.10;6.03;;;;;;;;;;10279915;28;20072;-68
2022/06/28 08:34:47;;;;;;;14.05;6.00;;;;;;;;;;10317546;28;20509;-68
2022/06/28 08:39:45;;;;;;;9.15;5.90;;;;;;;;;;10278914;28;20077;-68
2022/06/28 08:44:46;;;;;;;8.82;5.70;;;;;;;;;;10277261;28;20080;-68
2022/06/28 08:49:50;;;;;;;10.80;7.20;;;;;;;;;;10281535;28;20099;-69
2022/06/28 08:54:54;;;;;;;10.32;7.45;;;;;;;;;;10277211;28;20159;-70
2022/06/28 09:00:00;;;;;;;16.85;7.38;;;;;;;;;;10278356;28;20068;-68
2022/06/28 09:05:00;;;;;;;18.57;7.70;;;;;;;;;;10286287;28;20073;-68
2022/06/28 09:10:01;;;;;;;20.70;9.27;;;;;;;;;;10281250;28;20068;-67
2022/06/28 09:15:04;;;;;;;21.70;6.50;;;;;;;;;;10284282;28;20522;-68
2022/06/28 09:20:05;;;;;;;16.38;8.60;;;;;;;;;;10281791;28;20422;-69
2022/06/28 09:25:04;;;;;;;13.93;8.57;;;;;;;;;;10281535;28;20515;-68
2022/06/28 09:30:05;;;;;;;9.77;6.20;;;;;;;;;;10281646;28;20060;-66
2022/06/28 09:35:05;;;;;;;10.90;6.13;;;;;;;;;;10275417;28;20446;-68
2022/06/28 09:40:13;;;;;;;12.18;5.90;;;;;;;;;;10280078;28;20048;-68
2022/06/28 09:45:14;;;;;;;11.82;5.50;;;;;;;;;;10278446;28;20053;-67
2022/06/28 09:50:19;;;;;;;16.27;7.22;;;;;;;;;;10278146;28;20048;-68
2022/06/28 09:55:18;;;;;;;13.52;5.30;;;;;;;;;;10281116;28;20069;-68
2022/06/28 10:00:20;;;;;;;9.15;6.18;;;;;;;;;;10281104;28;20073;-67
2022/06/28 10:05:18;;;;;;;8.10;5.63;;;;;;;;;;10280161;28;20087;-67
2022/06/28 10:10:17;;;;;;;10.07;5.68;;;;;;;;;;10278123;28;20072;-68
2022/06/28 10:15:19;;;;;;;8.43;4.93;;;;;;;;;;10280137;28;20088;-69
2022/06/28 10:20:19;;;;;;;10.25;5.63;;;;;;;;;;10275655;28;20370;-68
2022/06/28 10:25:18;;;;;;;6.22;4.40;;;;;;;;;;10276660;28;20084;-67
2022/06/28 10:30:25;;;;;;;11.48;6.25;;;;;;;;;;10276436;28;20076;-68
2022/06/28 10:35:42;;;;;;;9.77;5.25;;;;;;;;;;10279553;28;20115;-68
2022/06/28 10:40:47;;;;;;;6.68;4.80;;;;;;;;;;10276242;28;20499;-67
2022/06/28 10:46:05;;;;;;;10.15;4.93;;;;;;;;;;10277126;28;20633;-69
2022/06/28 10:51:05;;;;;;;10.25;6.25;;;;;;;;;;10278125;28;20068;-67
2022/06/28 10:56:18;;;;;;;5.70;4.80;;;;;;;;;;10272660;28;20426;-67
2022/06/28 11:01:18;;;;;;;8.30;4.95;;;;;;;;;;10292487;28;20829;-67
2022/06/28 11:06:18;;;;;;;7.43;4.50;;;;;;;;;;10276214;28;20497;-67
2022/06/28 11:11:17;;;;;;;9.18;5.97;;;;;;;;;;10274936;28;20103;-68
2022/06/28 11:16:30;;;;;;;6.13;4.13;;;;;;;;;;10274786;28;20304;-68
2022/06/28 11:21:35;;;;;;;8.48;5.00;;;;;;;;;;10271756;28;20085;-67
2022/06/28 11:31:49;;;;;;;11.07;5.75;;;;;;;;;;10276521;28;20075;-69
2022/06/28 11:36:49;;;;;;;7.88;5.18;;;;;;;;;;10279359;28;20091;-67
2022/06/28 11:41:49;;;;;;;14.13;7.07;;;;;;;;;;10282055;28;20061;-67
2022/06/28 11:46:47;;;;;;;10.13;6.55;;;;;;;;;;10285052;28;20087;-67
2022/06/28 11:51:46;;;;;;;7.05;5.13;;;;;;;;;;10284109;28;20084;-69
2022/06/28 11:56:46;;;;;;;9.98;6.57;;;;;;;;;;10285478;28;20072;-67
2022/06/28 12:01:44;;;;;;;11.95;5.60;;;;;;;;;;10283426;28;20069;-67
2022/06/28 12:06:44;;;;;;;6.97;5.15;;;;;;;;;;10282477;28;20075;-68
2022/06/28 12:11:44;;;;;;;7.22;4.18;;;;;;;;;;10284169;28;20099;-68
2022/06/28 12:16:45;;;;;;;4.97;4.47;;;;;;;;;;10285548;28;20047;-68
2022/06/28 12:22:02;;;;;;;7.25;4.30;;;;;;;;;;10284791;28;20064;-69
2022/06/28 12:27:08;;;;;;;6.00;4.87;;;;;;;;;;10287253;28;20048;-68
2022/06/28 12:32:11;;;;;;;9.52;4.10;;;;;;;;;;10282487;28;20076;-68
2022/06/28 12:37:29;;;;;;;5.63;4.00;;;;;;;;;;10306956;28;20075;-68
2022/06/28 12:42:29;;;;;;;13.70;6.70;;;;;;;;;;10279939;28;20048;-68
2022/06/28 12:47:29;;;;;;;6.88;4.70;;;;;;;;;;10279161;28;20072;-68
2022/06/28 12:52:27;;;;;;;5.90;3.95;;;;;;;;;;10280814;28;20076;-67
2022/06/28 12:57:26;;;;;;;11.15;3.75;;;;;;;;;;10302942;28;20048;-68
2022/06/28 13:02:24;;;;;;;7.90;4.00;;;;;;;;;;10286491;28;20057;-68
2022/06/28 13:07:24;;;;;;;6.97;4.32;;;;;;;;;;10278249;28;20075;-68
2022/06/28 13:12:23;;;;;;;9.80;5.10;;;;;;;;;;10281797;28;20083;-68
2022/06/28 13:17:22;;;;;;;9.65;4.03;;;;;;;;;;10282744;28;20067;-68
2022/06/28 13:22:21;;;;;;;5.13;3.22;;;;;;;;;;10281424;28;20502;-68
2022/06/28 13:27:20;;;;;;;5.95;5.35;;;;;;;;;;10281512;28;20099;-67
2022/06/28 13:32:19;;;;;;;9.10;4.00;;;;;;;;;;10278705;28;20076;-68
2022/06/28 13:37:17;;;;;;;10.40;4.22;;;;;;;;;;10276660;28;20049;-67
2022/06/28 13:42:16;;;;;;;9.75;4.85;;;;;;;;;;10277355;28;20052;-68
2022/06/28 13:47:16;;;;;;;5.68;3.78;;;;;;;;;;10278566;28;20449;-68
2022/06/28 13:52:14;;;;;;;8.93;4.95;;;;;;;;;;10281357;28;20080;-68
2022/06/28 13:57:16;;;;;;;4.07;2.95;;;;;;;;;;10277846;28;20068;-68
2022/06/28 14:02:15;;;;;;;4.50;3.80;;;;;;;;;;10276273;28;20481;-68
2022/06/28 14:07:14;;;;;;;8.55;5.63;;;;;;;;;;10277770;28;20091;-69
2022/06/28 14:12:13;;;;;;;5.10;2.90;;;;;;;;;;10277773;28;20084;-67
2022/06/28 14:17:11;;;;;;;4.97;3.70;;;;;;;;;;10279040;28;20084;-68
2022/06/28 14:22:11;;;;;;;9.93;5.13;;;;;;;;;;10276284;28;20064;-68
2022/06/28 14:27:09;;;;;;;10.82;5.05;;;;;;;;;;10278061;28;20072;-67
2022/06/28 14:32:08;;;;;;;11.20;5.43;;;;;;;;;;10274781;28;20052;-67
2022/06/28 14:37:06;;;;;;;7.22;5.60;;;;;;;;;;10275125;28;20057;-68
2022/06/28 14:42:07;;;;;;;8.52;3.25;;;;;;;;;;10273578;28;20073;-68
2022/06/28 14:47:05;;;;;;;6.95;4.18;;;;;;;;;;10273820;28;20052;-68
2022/06/28 14:52:04;;;;;;;8.13;3.65;;;;;;;;;;10274624;28;20072;-68
2022/06/28 14:57:04;;;;;;;7.25;2.90;;;;;;;;;;10277511;28;20548;-67
2022/06/28 15:02:04;;;;;;;7.57;3.42;;;;;;;;;;10274794;28;20080;-67
2022/06/28 15:07:03;;;;;;;10.73;8.50;;;;;;;;;;10283600;28;20060;-67
2022/06/28 15:12:02;;;;;;;14.35;3.80;;;;;;;;;;10271985;28;20083;-68
2022/06/28 15:17:00;;;;;;;8.48;4.05;;;;;;;;;;10274917;28;20077;-68
2022/06/28 15:32:35;;;;;;;6.78;3.53;;;;;;;;;;10260069;28;20073;-68
2022/06/28 15:37:35;;;;;;;5.75;3.47;;;;;;;;;;10279916;28;20070;-68
2022/06/28 15:42:33;;;;;;;7.25;3.42;;;;;;;;;;10281403;28;20068;-68
2022/06/28 15:47:32;;;;;;;7.72;3.38;;;;;;;;;;10281881;28;20079;-69
2022/06/28 15:52:30;;;;;;;7.88;5.57;;;;;;;;;;10280452;28;20072;-68
2022/06/28 15:57:30;;;;;;;8.82;4.13;;;;;;;;;;10284429;28;20068;-70
2022/06/28 16:02:28;;;;;;;9.48;3.10;;;;;;;;;;10281206;28;20069;-68
2022/06/28 16:07:26;;;;;;;14.20;3.63;;;;;;;;;;10277750;28;20077;-67
2022/06/28 16:17:42;;;;;;;5.55;3.92;;;;;;;;;;10276112;28;20072;-67
2022/06/28 16:22:41;;;;;;;5.78;3.05;;;;;;;;;;10284111;28;20056;-67
2022/06/28 16:27:39;;;;;;;4.60;3.08;;;;;;;;;;10286136;28;20072;-67
2022/06/28 16:32:37;;;;;;;6.43;3.00;;;;;;;;;;10287056;28;20073;-67
2022/06/28 16:37:37;;;;;;;6.20;3.60;;;;;;;;;;10285551;28;20082;-68
2022/06/28 16:42:36;;;;;;;5.07;4.15;;;;;;;;;;10276454;28;20081;-64
2022/06/28 16:47:34;;;;;;;4.32;3.00;;;;;;;;;;10279802;28;20069;-64
2022/06/28 16:52:32;;;;;;;12.25;7.63;;;;;;;;;;10279513;28;20084;-64
2022/06/28 16:57:32;;;;;;;9.82;4.18;;;;;;;;;;10275957;28;20077;-64
2022/06/28 17:02:30;;;;;;;4.88;3.90;;;;;;;;;;10280231;28;20494;-65
2022/06/28 17:07:29;;;;;;;5.47;3.63;;;;;;;;;;10285435;28;20073;-65
2022/06/28 17:12:31;;;;;;;8.05;7.13;;;;;;;;;;10308775;28;20055;-64
2022/06/28 17:17:30;;;;;;;7.88;7.10;;;;;;;;;;10316826;28;20072;-65
2022/06/28 17:22:29;;;;;;;8.48;5.78;;;;;;;;;;10307583;28;20107;-64
2022/06/28 17:27:28;;;;;;;15.25;10.48;;;;;;;;;;10283272;28;20079;-63
2022/06/28 17:32:26;;;;;;;8.05;4.93;;;;;;;;;;10280315;28;20084;-65
2022/06/28 17:37:27;;;;;;;13.55;10.23;;;;;;;;;;10282119;28;20081;-64
2022/06/28 17:42:25;;;;;;;5.43;4.93;;;;;;;;;;10282315;28;20068;-65
2022/06/28 17:47:23;;;;;;;5.38;3.13;;;;;;;;;;10278278;28;20076;-65
2022/06/28 17:52:22;;;;;;;5.25;3.40;;;;;;;;;;10279071;28;20083;-65
2022/06/28 17:57:22;;;;;;;5.50;3.65;;;;;;;;;;10284540;28;20064;-66
2022/06/28 18:02:20;;;;;;;12.70;5.82;;;;;;;;;;10274985;28;20091;-65
2022/06/28 18:07:22;;;;;;;3.50;3.20;;;;;;;;;;10305903;28;20075;-65
2022/06/28 18:12:22;;;;;;;6.20;3.85;;;;;;;;;;10316501;28;20064;-64
2022/06/28 18:17:21;;;;;;;5.22;4.03;;;;;;;;;;10299003;28;20068;-65
2022/06/28 18:22:19;;;;;;;9.50;3.60;;;;;;;;;;10280337;28;20150;-64
2022/06/28 18:27:18;;;;;;;11.98;5.63;;;;;;;;;;10299223;28;20540;-64
2022/06/28 18:32:17;;;;;;;5.55;3.10;;;;;;;;;;10288592;28;20501;-65
2022/06/28 18:37:17;;;;;;;15.18;3.60;;;;;;;;;;10292007;28;20077;-65
2022/06/28 18:42:15;;;;;;;6.47;3.17;;;;;;;;;;10282895;28;20074;-65
2022/06/28 18:47:14;;;;;;;7.70;3.85;;;;;;;;;;10299734;28;20605;-64
2022/06/28 18:52:14;;;;;;;7.07;3.08;;;;;;;;;;10276655;28;20049;-64
2022/06/28 18:57:12;;;;;;;9.48;3.58;;;;;;;;;;10279096;28;20072;-64
2022/06/28 19:02:11;;;;;;;6.45;3.90;;;;;;;;;;10271247;28;20073;-63
2022/06/28 19:07:11;;;;;;;7.10;5.32;;;;;;;;;;10274722;28;20461;-64
2022/06/28 19:12:11;;;;;;;10.32;3.47;;;;;;;;;;10276444;28;20068;-64
2022/06/28 19:17:09;;;;;;;4.80;2.85;;;;;;;;;;10275786;28;20079;-65
2022/06/28 19:22:08;;;;;;;10.88;3.00;;;;;;;;;;10275210;28;20092;-65
2022/06/28 19:27:06;;;;;;;5.43;3.05;;;;;;;;;;10282672;28;20068;-64
2022/06/28 19:32:06;;;;;;;10.38;3.33;;;;;;;;;;10278801;28;20068;-64
2022/06/28 19:37:05;;;;;;;4.85;3.53;;;;;;;;;;10282057;28;20076;-65
2022/06/28 19:42:04;;;;;;;7.20;3.10;;;;;;;;;;10273569;28;20069;-64
2022/06/28 19:47:02;;;;;;;12.10;3.28;;;;;;;;;;10277643;28;20092;-65
2022/06/28 19:52:04;;;;;;;10.77;3.72;;;;;;;;;;10278735;28;20076;-64
2022/06/28 19:57:08;;;;;;;9.70;3.97;;;;;;;;;;10280587;28;20212;-64
2022/06/28 20:02:06;;;;;;;13.07;3.70;;;;;;;;;;10286701;28;20064;-65
2022/06/28 20:07:07;;;;;;;14.57;4.40;;;;;;;;;;10287298;28;20071;-63
2022/06/28 20:12:07;;;;;;;9.07;3.85;;;;;;;;;;10282205;28;20037;-65
2022/06/28 20:17:06;;;;;;;7.35;3.50;;;;;;;;;;10289731;28;20090;-65
2022/06/28 20:22:06;;;;;;;9.20;3.58;;;;;;;;;;10284344;28;20093;-64
2022/06/28 20:27:05;;;;;;;17.13;3.53;;;;;;;;;;10283246;28;20081;-65
2022/06/28 20:32:04;;;;;;;8.57;4.15;;;;;;;;;;10282429;28;20088;-63
2022/06/28 20:37:03;;;;;;;17.40;5.28;;;;;;;;;;10285740;28;20084;-64
2022/06/28 20:42:21;;;;;;;15.13;4.13;;;;;;;;;;10284923;28;20044;-64
2022/06/28 20:47:20;;;;;;;8.73;3.60;;;;;;;;;;10284907;28;20045;-64
2022/06/28 20:52:24;;;;;;;14.57;4.03;;;;;;;;;;10282215;28;20041;-64
2022/06/28 20:57:23;;;;;;;11.45;4.18;;;;;;;;;;10303656;28;20072;-63
2022/06/28 21:02:22;;;;;;;9.52;3.00;;;;;;;;;;10280278;28;20076;-64
2022/06/28 21:07:20;;;;;;;5.57;3.20;;;;;;;;;;10281888;28;20388;-64
2022/06/28 21:12:19;;;;;;;8.05;2.75;;;;;;;;;;10276230;28;20611;-64
2022/06/28 21:17:18;;;;;;;5.95;3.47;;;;;;;;;;10278183;28;20091;-64
2022/06/28 21:22:17;;;;;;;8.25;2.65;;;;;;;;;;10274988;28;20084;-63
2022/06/28 21:27:15;;;;;;;13.02;3.55;;;;;;;;;;10278342;28;20069;-64
2022/06/28 21:32:13;;;;;;;9.13;3.50;;;;;;;;;;10277005;28;20064;-64
2022/06/28 21:37:13;;;;;;;6.05;2.40;;;;;;;;;;10278438;28;20083;-65
2022/06/28 21:42:12;;;;;;;7.82;2.95;;;;;;;;;;10278170;28;20544;-64
2022/06/28 21:47:10;;;;;;;4.50;2.67;;;;;;;;;;10281023;28;20492;-64
2022/06/28 21:52:08;;;;;;;4.50;2.67;;;;;;;;;;10278833;28;20072;-63
2022/06/28 21:57:08;;;;;;;4.55;2.65;;;;;;;;;;10279815;28;20103;-64
2022/06/28 22:02:06;;;;;;;3.60;2.42;;;;;;;;;;10276916;28;20537;-64
2022/06/28 22:07:05;;;;;;;6.25;1.98;;;;;;;;;;10277193;28;20077;-64
2022/06/28 22:12:04;;;;;;;6.50;2.42;;;;;;;;;;10277248;28;20060;-64
2022/06/28 22:17:04;;;;;;;3.40;2.45;;;;;;;;;;10280090;28;20514;-64
2022/06/28 22:22:02;;;;;;;4.63;1.95;;;;;;;;;;10276580;28;20084;-65
2022/06/28 22:27:01;;;;;;;4.45;2.20;;;;;;;;;;10275219;28;20087;-64
2022/06/28 22:31:59;;;;;;;3.40;2.40;;;;;;;;;;10274292;28;20049;-65
2022/06/28 22:36:59;;;;;;;4.88;2.05;;;;;;;;;;10278695;28;20079;-65
2022/06/28 22:41:57;;;;;;;10.90;3.13;;;;;;;;;;10279089;28;20142;-65
2022/06/28 22:46:55;;;;;;;5.75;2.67;;;;;;;;;;10276583;28;20072;-65
2022/06/28 22:51:54;;;;;;;5.28;3.20;;;;;;;;;;10276282;28;20492;-64
2022/06/28 22:56:55;;;;;;;3.70;2.70;;;;;;;;;;10277276;28;20115;-64
2022/06/28 23:01:53;;;;;;;2.55;2.35;;;;;;;;;;10273797;28;20068;-65
2022/06/28 23:06:51;;;;;;;2.80;2.50;;;;;;;;;;10273269;28;20083;-65
2022/06/28 23:11:50;;;;;;;4.75;3.00;;;;;;;;;;10273979;28;20096;-64
2022/06/28 23:16:49;;;;;;;6.07;2.63;;;;;;;;;;10276843;28;20064;-64
2022/06/28 23:21:48;;;;;;;4.72;2.53;;;;;;;;;;10276863;28;20095;-65
2022/06/28 23:26:46;;;;;;;3.17;2.35;;;;;;;;;;10275706;28;20501;-64
2022/06/28 23:31:44;;;;;;;3.88;2.25;;;;;;;;;;10277602;28;20072;-65
2022/06/28 23:36:44;;;;;;;3.13;2.60;;;;;;;;;;10282778;28;20068;-65
2022/06/28 23:41:43;;;;;;;4.22;2.72;;;;;;;;;;10283569;28;20067;-63
2022/06/28 23:46:43;;;;;;;5.18;2.83;;;;;;;;;;10283026;28;20090;-64
2022/06/28 23:51:44;;;;;;;3.03;2.75;;;;;;;;;;10283073;28;20060;-64
2022/06/28 23:56:43;;;;;;;4.40;3.10;;;;;;;;;;10281088;28;20616;-64
